Etusivu
METAR-TAF:

METAR-TAF

Lentoasemat :

Bukarest, Romania

Henri Coandăn lentoasema

Leveyspiiri: 44-33N, Pituuspiiri: 026-06E, korkeus merenpinnasta: 95 m

Tämänhetkinen sää

Tämä raportti tehtiin 15 minuuttia sitten, kello 06.30 UTC
Tuuli 11 kn koillisesta
Lämpötila 16°C
Kosteus 48%
Ilmanpaine 1020 hPa
Näkyvyys 10 km tai enemmän
ei pilviä alle 1500 m:ssä eikä cumulonimbus-pilviä

METAR: LROP 200630Z 05011KT CAVOK 16/05 Q1020 R88/CLRD// NOSIG

Aika: 09:45 (06:45 UTC)

Sääennuste

Tämä raportti tehtiin 1 tunti ja 45 minuuttia sitten, kello 05.00 UTC
Ennuste voimassa 20. päivästä klo 06 UTC - 21. päivään klo 06 UTC
Tuuli 10 kn koillisesta
Näkyvyys 10 km tai enemmän
ei pilviä alle 1500 m:ssä eikä cumulonimbus-pilviä
Tulossa
21. päivästä klo 02 UTC - 21. päivään klo 04 UTC
Tuuli 4 kn eri suunnista

TAF: LROP 200500Z 2006/2106 04010KT CAVOK BECMG 2102/2104 VRB04KT

Säähavainnot ja -ennusteet yli 4000 lentoasemalta (METAR- ja TAF-raportit).

Käytössä olevat sääasemat on merkitty karttaan keltaisilla ja punaisilla pisteillä.

Aseta hiiri pisteen päälle nähdäksesi sääaseman nimen.

Klikkaa sitten nähdäksesi säähavainnot ja -ennusteet.

Kartan vaihtaminen: klikkaa mustalla rastilla varustettuja vihreitä pisteitä, niin voit zoomata sisään; viivalla varustettua vihreää pistettä, niin voit zoomata ulos tai vihreitä nuolia, niin pääset viereisille kartoille.


METAR-TAF: